• Join FlightAware (Why Join?)
  • Login
  • US Flag 
06:25PM EDT


 

Airport Tracker/Info


-or-


 

Live Flight TrackerFlight Track Log ✈ KLM765 ✈ 07-May-2013 ✈ EHAM / AMS - TNCA / AUA

Flight Track Log - Related Links

Times and Time Zones

All times are in EDT time to prevent confusion due to time zone crossing. See the KLM765 flight status page for this flight to view local times or setup timezone preferences in your user account.

Time Position Orientation Groundspeed Altitude Reporting Facility
EDT Latitude Longitude Course Direction KTS MPH feet Rate Location/Type
06:44AM 52.3550 4.7110 North 172 198 100  Level FlightAware
06:45AM 52.3760 4.7140 North 161 185 1,300 2,040 Climbing FlightAware
06:45AM 52.3970 4.7150 North 170 196 2,000 1,260 Climbing FlightAware
06:46AM 52.4160 4.7170 North 172 198 2,500 1,200 Climbing FlightAware
06:46AM 52.4230 4.7170 360° North 173 199 2,700 1,380 Climbing FlightAware
06:46AM 52.4420 4.7040 337° Northwest 190 219 3,200 -1,080 Climbing FlightAware
06:46AM 52.4583 4.6765 337° Northwest 1 1 1,900 480 Descending FlightAware UK
06:46AM 52.4590 4.6750 337° Northwest 221 254 3,400 5,340 Climbing FlightAware
06:47AM 52.4660 4.6550 300° West 244 281 3,600 720 Climbing FlightAware
06:47AM 52.4680 4.6340 279° West 262 302 3,700 1,620 Climbing FlightAware
06:48AM 52.4620 4.5390 264° West 293 337 5,100 2,100 Climbing FlightAware
06:48AM 52.4490 4.5150 228° Southwest 286 329 5,800 600 Climbing FlightAware
06:48AM 52.4186 4.4807 228° Southwest 1 1 5,500 2,880 Descending FlightAware UK
06:48AM 52.4220 4.4810 228° Southwest 288 331 7,000 8,760 Climbing FlightAware
06:49AM 52.4120 4.4530 240° Southwest 287 330 7,700  Climbing FlightAware
06:49AM 52.3994 4.4179 240° Southwest 1 1 7,000 2,400 Descending FlightAware UK
06:49AM 52.3920 4.3950 240° Southwest 292 336 8,900 4,200 Climbing FlightAware
06:49AM 52.3760 4.3460 242° Southwest 300 345 9,800 1,680 Climbing FlightAware
06:50AM 52.3450 4.2480 243° Southwest 338 389 10,900 1,260 Climbing FlightAware
06:51AM 52.3130 4.1530 241° Southwest 376 433 11,600 -240 Climbing FlightAware
06:51AM 52.2890 4.0873 241° Southwest 382 440 10,700 1,800 Descending FlightAware UK
06:52AM 52.2760 4.0580 241° Southwest 392 451 12,800 3,780 Climbing FlightAware
06:52AM 52.2320 3.9440 238° Southwest 401 461 14,500 840 Climbing FlightAware
06:53AM 52.2045 3.8750 238° Southwest 396 456 13,800 1,920 Descending FlightAware UK
06:53AM 52.1900 3.8380 238° Southwest 413 475 15,800 3,600 Climbing FlightAware
06:54AM 52.1430 3.7200 237° Southwest 416 479 17,500 1,920 Climbing FlightAware
06:54AM 52.1020 3.6140 238° Southwest 426 490 18,600 180 Climbing FlightAware
06:55AM 52.0793 3.5573 238° Southwest 420 483 17,700 -660 Descending FlightAware UK
06:55AM 52.0600 3.5083 237° Southwest 422 486 18,200 5,700 Climbing FlightAware UK
06:55AM 52.0590 3.5060 237° Southwest 436 502 19,700 1,320 Climbing FlightAware
06:55AM 52.0394 3.4582 237° Southwest 426 490 18,600 -1,140 Descending FlightAware UK
06:56AM 52.0191 3.4077 237° Southwest 428 493 19,100 4,560 Climbing FlightAware UK
06:56AM 52.0100 3.3780 237° Southwest 449 517 20,900 1,500 Climbing FlightAware
06:56AM 51.9917 3.2535 237° Southwest 444 511 20,300 1,620 Descending FlightAware UK
06:56AM 51.9900 3.2520 237° Southwest 457 526 22,000 2,580 Climbing FlightAware
06:57AM 51.9780 3.1535 237° Southwest 442 509 21,600 2,220 Descending FlightAware UK
06:57AM 51.9730 3.1230 237° Southwest 449 517 23,500 1,800 Climbing FlightAware
06:57AM 51.9618 3.0355 237° Southwest 438 504 22,700 1,680 Descending FlightAware UK
06:58AM 51.9560 3.0020 237° Southwest 451 519 24,500 1,620 Climbing FlightAware
06:58AM 51.9440 2.9178 237° Southwest 436 502 23,700 -180 Descending FlightAware UK
06:58AM 51.9325 2.8396 257° West 436 502 24,400 4,500 Climbing FlightAware UK
06:59AM 51.9300 2.8230 257° West 448 516 26,100 3,180 Climbing FlightAware
06:59AM 51.9140 2.7100 257° West 454 522 26,700 60 Climbing FlightAware
07:00AM 51.9060 2.5750 265° West 27,400 -480 Climbing FlightAware
07:00AM 51.8965 2.4761 265° West 450 518 26,200 720 Descending FlightAware UK
07:01AM 51.8890 2.4090 265° West 473 544 28,000 840 Climbing FlightAware
07:01AM 51.8818 2.3293 265° West 456 525 26,800 -1,500 Descending FlightAware UK
07:01AM 51.8737 2.2440 261° West 464 534 27,000 4,380 Climbing FlightAware UK
07:01AM 51.8750 2.2530 261° West 486 559 28,500 3,300 Climbing FlightAware
07:02AM 51.8610 2.1140 261° West 489 563 29,200 -420 Climbing FlightAware
07:02AM 51.8511 2.0067 261° West 472 543 28,100 900 Descending FlightAware UK
07:03AM 51.8450 1.9490 261° West 494 568 29,900 780 Climbing FlightAware
07:03AM 51.8381 1.8756 261° West 478 550 28,600 900 Descending FlightAware UK
07:03AM 51.8310 1.8060 261° West 497 572 30,500 840 Climbing FlightAware
07:04AM 51.8230 1.7219 261° West 480 552 29,200 -1,680 Descending FlightAware UK
07:04AM 51.8164 1.6558 261° West 482 555 29,500 4,560 Climbing FlightAware UK
07:04AM 51.8150 1.6380 261° West 498 573 31,200 1,500 Climbing FlightAware
07:04AM 51.8077 1.5679 261° West 484 557 30,100 -1,260 Descending FlightAware UK
07:05AM 51.8011 1.5025 261° West 484 557 30,500 4,740 Climbing FlightAware UK
07:05AM 51.8000 1.4900 261° West 489 563 32,000  Climbing FlightAware
07:05AM 51.7902 1.3958 261° West 482 555 30,500  Descending FlightAware UK
07:06AM 51.7850 1.3490 261° West 482 555 32,000  Climbing FlightAware
07:06AM 51.7770 1.2691 261° West 480 552 30,500  Descending FlightAware UK
07:06AM 51.7700 1.2010 261° West 478 550 32,000  Climbing FlightAware
07:07AM 51.7617 1.1212 261° West 480 552 30,500 -2,580 Descending FlightAware UK
07:07AM 51.7551 1.0583 260° West 478 550 30,500 3,900 Level FlightAware UK
07:07AM 51.7550 1.0550 260° West 477 549 32,000 4,680 Climbing FlightAware
07:07AM 51.7483 0.9940 260° West 479 551 32,000 -2,940 Level FlightAware ADS-B
07:07AM 51.7418 0.9330 260° West 480 552 30,500  Descending FlightAware UK
07:08AM 51.7362 0.8796 260° West 478 550 32,000  Climbing FlightAware ADS-B
07:08AM 51.7284 0.8069 260° West 482 555 30,500  Descending FlightAware UK
07:08AM 51.7249 0.7742 260° West 478 550 32,000 2,220 Climbing FlightAware ADS-B
07:09AM 51.7133 0.6668 260° West 477 549 32,000  Level FlightAware ADS-B
07:09AM 51.7017 0.5608 260° West 473 544 32,000 -1,800 Level FlightAware ADS-B
07:10AM 51.6943 0.4940 260° West 476 548 30,500  Descending FlightAware UK
07:10AM 51.6899 0.4536 260° West 474 545 32,000  Climbing FlightAware ADS-B
07:10AM 51.6804 0.3693 260° West 480 552 30,500  Descending FlightAware UK
07:10AM 51.6771 0.3387 260° West 475 547 32,000 2,220 Climbing FlightAware ADS-B
07:11AM 51.6650 0.2312 260° West 476 548 32,000 -1,800 Level FlightAware ADS-B
07:11AM 51.6573 0.1614 260° West 484 557 30,500  Descending FlightAware UK
07:11AM 51.6531 0.1260 260° West 475 547 32,000 2,160 Climbing FlightAware ADS-B
07:12AM 51.6411 0.0207 260° West 473 544 32,000  Level FlightAware ADS-B
07:12AM 51.6289 -0.0851 260° West 471 542 32,000 -1,860 Level FlightAware ADS-B
07:13AM 51.6216 -0.1484 260° West 476 548 30,500  Descending FlightAware UK
07:13AM 51.6168 -0.1891 260° West 472 543 32,000 2,040 Climbing FlightAware ADS-B
07:13AM 51.6041 -0.2972 259° West 473 544 32,000 -1,740 Level FlightAware ADS-B
07:14AM 51.5949 -0.3747 259° West 480 552 30,500  Descending FlightAware UK
07:14AM 51.5919 -0.4006 259° West 472 543 32,000 2,280 Climbing FlightAware ADS-B
07:14AM 51.5793 -0.5068 259° West 471 542 32,000  Level FlightAware ADS-B
07:15AM 51.5758 -0.5399 260° West 472 543 32,000  Level FlightAware ADS-B
07:15AM 51.5747 -0.5748 267° West 472 543 32,000  Level FlightAware ADS-B
07:15AM 51.5780 -0.6252 276° West 471 542 32,000 -2,820 Level FlightAware ADS-B
07:15AM 51.5843 -0.6844 276° West 476 548 30,500  Descending FlightAware UK
07:16AM 51.5884 -0.7348 276° West 471 542 32,000 1,980 Climbing FlightAware ADS-B
07:16AM 51.5972 -0.8406 278° West 471 542 32,000  Level FlightAware ADS-B
07:17AM 51.6059 -0.9451 278° West 469 540 32,000  Level FlightAware ADS-B
07:17AM 51.6157 -1.0611 278° West 467 537 32,000  Level FlightAware ADS-B
07:18AM 51.6243 -1.1646 278° West 469 540 32,000  Level FlightAware ADS-B
07:18AM 51.6329 -1.2690 278° West 469 540 32,000  Level FlightAware ADS-B
07:19AM 51.6415 -1.3751 277° West 470 541 32,000  Level FlightAware ADS-B
07:19AM 51.6498 -1.4791 277° West 469 540 32,000  Level FlightAware ADS-B
07:20AM 51.6585 -1.5889 277° West 469 540 32,000 -1,800 Level FlightAware ADS-B
07:20AM 51.6638 -1.6555 277° West 480 552 30,500  Descending FlightAware UK
07:20AM 51.6668 -1.6957 277° West 470 541 32,000  Climbing FlightAware ADS-B
07:21AM 51.6733 -1.7800 277° West 480 552 30,500  Descending FlightAware UK
07:21AM 51.6748 -1.7997 277° West 469 540 32,000  Climbing FlightAware ADS-B
07:21AM 51.6795 -1.8624 277° West 480 552 30,500  Descending FlightAware UK
07:21AM 51.6828 -1.9046 277° West 469 540 32,000  Climbing FlightAware ADS-B
07:22AM 51.6905 -2.0071 277° West 480 552 30,500  Descending FlightAware UK
07:22AM 51.6926 -2.0353 277° West 469 540 32,000  Climbing FlightAware ADS-B
07:22AM 51.6984 -2.1102 277° West 480 552 30,500  Descending FlightAware UK
07:22AM 51.7006 -2.1402 277° West 468 539 32,000  Climbing FlightAware ADS-B
07:23AM 51.7064 -2.2147 277° West 478 550 30,500  Descending FlightAware UK
07:23AM 51.7086 -2.2462 277° West 468 539 32,000 2,280 Climbing FlightAware ADS-B
07:23AM 51.7164 -2.3496 277° West 469 540 32,000 -2,040 Level FlightAware ADS-B
07:24AM 51.7203 -2.4007 277° West 478 550 30,500  Descending FlightAware UK
07:24AM 51.7245 -2.4567 277° West 469 540 32,000  Climbing FlightAware ADS-B
07:24AM 51.7296 -2.5245 277° West 480 552 30,500  Descending FlightAware UK
07:24AM 51.7325 -2.5632 277° West 469 540 32,000  Climbing FlightAware ADS-B
07:25AM 51.7375 -2.6285 277° West 478 550 30,500  Descending FlightAware UK
07:25AM 51.7405 -2.6675 277° West 471 542 32,000  Climbing FlightAware ADS-B
07:25AM 51.7472 -2.7535 277° West 480 552 30,500  Descending FlightAware UK
07:25AM 51.7489 -2.7773 277° West 471 542 32,000 1,860 Climbing FlightAware ADS-B
07:26AM 51.7596 -2.9186 277° West 472 543 32,000 -1,560 Level FlightAware ADS-B
07:26AM 51.7644 -2.9831 277° West 480 552 30,500  Descending FlightAware UK
07:27AM 51.7701 -3.0570 277° West 471 542 32,000  Climbing FlightAware ADS-B
07:27AM 51.7787 -3.1706 277° West 482 555 30,500  Descending FlightAware UK
07:28AM 51.7820 -3.2220 277° West 468 539 32,000  Climbing FlightAware
07:28AM 51.7881 -3.2953 277° West 482 555 30,500  Descending FlightAware UK
07:28AM 51.7930 -3.3570 277° West 467 537 32,000  Climbing FlightAware
07:28AM 51.7943 -3.3782 277° West 480 552 30,500 -4,740 Descending FlightAware UK
07:29AM 51.7990 -3.4395 277° West 480 552 30,500 2,040 Level FlightAware UK
07:29AM 51.8053 -3.5232 277° West 465 535 32,000  Climbing FlightAware ADS-B
07:29AM 51.8098 -3.5840 277° West 476 548 30,500  Descending FlightAware UK
07:29AM 51.8134 -3.6333 277° West 466 536 32,000  Climbing FlightAware ADS-B
07:30AM 51.8174 -3.6865 277° West 482 555 30,500 -2,700 Descending FlightAware UK
07:30AM 51.8220 -3.7492 277° West 480 552 30,500 3,420 Level FlightAware UK
07:30AM 51.8239 -3.7777 277° West 467 537 32,000  Climbing FlightAware ADS-B
07:30AM 51.8279 -3.8322 277° West 482 555 30,500  Descending FlightAware UK
07:31AM 51.8360 -3.9632 277° West 467 537 32,000 1,140 Climbing FlightAware ADS-B
07:32AM 51.8430 -4.0850 275° West 464 534 32,000 -1,560 Level FlightAware
07:32AM 51.8481 -4.1627 275° West 486 559 30,500  Descending FlightAware UK
07:32AM 51.8508 -4.2046 275° West 462 532 32,000  Climbing FlightAware ADS-B
07:33AM 51.8547 -4.2655 275° West 486 559 30,500 -2,520 Descending FlightAware UK
07:33AM 51.8585 -4.3270 276° West 488 562 30,500 2,460 Level FlightAware UK
07:33AM 51.8610 -4.3770 276° West 457 526 32,000  Climbing FlightAware
07:34AM 51.8675 -4.4890 276° West 484 557 30,500  Descending FlightAware UK
07:34AM 51.8690 -4.5150 276° West 453 521 32,000  Climbing FlightAware
07:34AM 51.8764 -4.6505 276° West 482 555 30,500  Descending FlightAware UK
07:35AM 51.8770 -4.6680 276° West 453 521 32,000  Climbing FlightAware
07:35AM 51.8808 -4.7315 276° West 484 557 30,500 -2,700 Descending FlightAware UK
07:35AM 51.8841 -4.7922 275° West 484 557 30,500 3,720 Level FlightAware UK
07:35AM 51.8850 -4.8040 275° West 454 522 32,000  Climbing FlightAware
07:36AM 51.8886 -4.8732 275° West 484 557 30,500 -2,520 Descending FlightAware UK
07:36AM 51.8918 -4.9340 275° West 484 557 30,500 3,300 Level FlightAware UK
07:36AM 51.8930 -4.9520 275° West 452 520 32,000  Climbing FlightAware
07:36AM 51.8960 -5.0149 275° West 484 557 30,500 -2,760 Descending FlightAware UK
07:37AM 51.8991 -5.0755 275° West 484 557 30,500 3,600 Level FlightAware UK
07:37AM 51.9000 -5.0850 275° West 451 519 32,000  Climbing FlightAware
07:37AM 51.9033 -5.1562 275° West 484 557 30,500 -2,580 Descending FlightAware UK
07:37AM 51.9062 -5.2159 275° West 484 557 30,500 3,900 Level FlightAware UK
07:37AM 51.9060 -5.2210 275° West 451 519 32,000  Climbing FlightAware
07:38AM 51.9103 -5.2964 275° West 488 562 30,500 -2,460 Descending FlightAware UK
07:38AM 51.9132 -5.3568 274° West 486 559 30,500 3,420 Level FlightAware UK
07:38AM 51.9140 -5.3760 274° West 451 519 32,000  Climbing FlightAware
07:38AM 51.9125 -5.4572 274° West 488 562 30,500 -2,280 Descending FlightAware UK
07:39AM 51.9096 -5.5171 266° West 486 559 30,500 4,980 Level FlightAware UK
07:39AM 51.9100 -5.5050 266° West 447 514 32,000  Climbing FlightAware
07:39AM 51.9064 -5.5768 266° West 490 564 30,500 -2,520 Descending FlightAware UK
07:39AM 51.9033 -5.6363 265° West 490 564 30,500 4,080 Level FlightAware UK
07:39AM 51.9030 -5.6380 265° West 440 506 32,000 240 Climbing FlightAware
07:40AM 51.8991 -5.7146 265° West 488 562 30,600 -1,620 Descending FlightAware UK
07:40AM 51.8958 -5.7731 265° West 490 564 31,000 5,280 Climbing FlightAware UK
07:40AM 51.8950 -5.7870 265° West 431 496 32,800 1,740 Climbing FlightAware
07:40AM 51.8911 -5.8491 265° West 482 555 31,700 -1,380 Descending FlightAware UK
07:41AM 51.8880 -5.9057 265° West 478 550 32,000 4,680 Climbing FlightAware UK
07:41AM 51.8880 -5.9100 265° West 424 488 33,500 480 Climbing FlightAware
07:41AM 51.8835 -5.9815 265° West 476 548 32,200 -1,800 Descending FlightAware UK
07:41AM 51.8802 -6.0380 265° West 474 545 32,400 4,140 Climbing FlightAware UK
07:42AM 51.8790 -6.0560 265° West 427 491 34,000 240 Climbing FlightAware
07:42AM 51.8757 -6.1142 265° West 476 548 32,500 -2,700 Descending FlightAware UK
07:42AM 51.8724 -6.1714 265° West 476 548 32,500 3,720 Level FlightAware UK
07:42AM 51.8710 -6.1860 265° West 425 489 34,000  Climbing FlightAware
07:43AM 51.8679 -6.2474 265° West 476 548 32,500 -2,520 Descending FlightAware UK
07:43AM 51.8646 -6.3040 265° West 476 548 32,500 3,300 Level FlightAware UK
07:43AM 51.8630 -6.3210 265° West 419 482 34,000  Climbing FlightAware
07:43AM 51.8600 -6.3786 265° West 474 545 32,500 -2,760 Descending FlightAware UK
07:44AM 51.8566 -6.4338 264° West 474 545 32,500 3,600 Level FlightAware UK
07:44AM 51.8560 -6.4420 264° West 417 480 34,000  Climbing FlightAware
07:44AM 51.8518 -6.5080 264° West 472 543 32,500 -2,580 Descending FlightAware UK
07:44AM 51.8484 -6.5637 264° West 472 543 32,500 3,900 Level FlightAware UK
07:44AM 51.8480 -6.5700 264° West 419 482 34,000  Climbing FlightAware
07:45AM 51.8436 -6.6382 264° West 474 545 32,500 -2,460 Descending FlightAware UK
07:45AM 51.8399 -6.6942 264° West 476 548 32,500 3,420 Level FlightAware UK
07:45AM 51.8390 -6.7160 264° West 421 484 34,000  Climbing FlightAware
07:45AM 51.8351 -6.7691 264° West 478 550 32,500 -2,700 Descending FlightAware UK
07:46AM 51.8315 -6.8252 264° West 478 550 32,500 3,720 Level FlightAware UK
07:46AM 51.8310 -6.8340 264° West 419 482 34,000  Climbing FlightAware
07:46AM 51.8266 -6.8998 264° West 476 548 32,500 -2,520 Descending FlightAware UK
07:46AM 51.8229 -6.9556 264° West 474 545 32,500 4,080 Level FlightAware UK
07:46AM 51.8230 -6.9580 264° West 417 480 34,000  Climbing FlightAware
07:47AM 51.8180 -7.0298 264° West 474 545 32,500 -2,400 Descending FlightAware UK
07:47AM 51.8142 -7.0853 264° West 474 545 32,500 3,600 Level FlightAware UK
07:47AM 51.8140 -7.0950 264° West 417 480 34,000  Climbing FlightAware
07:47AM 51.8092 -7.1587 264° West 476 548 32,500 -2,580 Descending FlightAware UK
07:48AM 51.8054 -7.2143 264° West 476 548 32,500 3,900 Level FlightAware UK
07:48AM 51.8050 -7.2190 264° West 417 480 34,000  Climbing FlightAware
07:48AM 51.8006 -7.2884 264° West 474 545 32,500 -2,460 Descending FlightAware UK
07:48AM 51.7970 -7.3439 264° West 474 545 32,500 3,420 Level FlightAware UK
07:49AM 51.7950 -7.3600 264° West 418 481 34,000  Climbing FlightAware
07:49AM 51.7916 -7.4179 264° West 474 545 32,500 -2,700 Descending FlightAware UK
07:49AM 51.7876 -7.4734 263° West 472 543 32,500 3,720 Level FlightAware UK
07:49AM 51.7870 -7.4800 263° West 418 481 34,000  Climbing FlightAware
07:50AM 51.7821 -7.5475 263° West 474 545 32,500 -2,520 Descending FlightAware UK
07:50AM 51.7782 -7.6032 264° West 474 545 32,500 3,300 Level FlightAware UK
07:50AM 51.7770 -7.6190 264° West 420 483 34,000  Climbing FlightAware
07:50AM 51.7727 -7.6777 264° West 476 548 32,500 -2,760 Descending FlightAware UK
07:51AM 51.7686 -7.7337 263° West 476 548 32,500 3,600 Level FlightAware UK
07:51AM 51.7680 -7.7460 263° West 422 486 34,000  Climbing FlightAware
07:51AM 51.7632 -7.8085 263° West 474 545 32,500 -2,580 Descending FlightAware UK
07:51AM 51.7591 -7.8647 263° West 476 548 32,500 3,180 Level FlightAware UK
07:51AM 51.7570 -7.8930 263° West 423 487 34,000  Climbing FlightAware
07:52AM 51.7521 -7.9584 263° West 476 548 32,500 -2,400 Descending FlightAware UK
07:52AM 51.7478 -8.0145 263° West 476 548 32,500 4,500 Level FlightAware UK
07:52AM 51.7470 -8.0160 263° West 422 486 34,000  Climbing FlightAware
07:52AM 51.7435 -8.0707 263° West 476 548 32,500 -2,700 Descending FlightAware UK
07:53AM 51.7392 -8.1268 263° West 476 548 32,500 3,060 Level FlightAware UK
07:53AM 51.7380 -8.1430 263° West 422 486 34,000  Climbing FlightAware
07:53AM 51.7319 -8.2202 263° West 476 548 32,500 -2,460 Descending FlightAware UK
07:53AM 51.7273 -8.2763 262° West 476 548 32,500 4,260 Level FlightAware UK
07:53AM 51.7280 -8.2650 262° West 423 487 34,000  Climbing FlightAware
07:54AM 51.7228 -8.3319 262° West 476 548 32,500 -2,760 Descending FlightAware UK
07:54AM 51.7185 -8.3882 263° West 476 548 32,500 3,600 Level FlightAware UK
07:54AM 51.7180 -8.3930 263° West 424 488 34,000  Climbing FlightAware
07:54AM 51.7126 -8.4632 263° West 478 550 32,500 -2,580 Descending FlightAware UK
07:55AM 51.7081 -8.5195 263° West 476 548 32,500 3,180 Level FlightAware UK
07:55AM 51.7060 -8.5480 263° West 422 486 34,000  Climbing FlightAware
07:55AM 51.7005 -8.6131 263° West 476 548 32,500  Descending FlightAware UK
07:55AM 51.6990 -8.6330 263° West 421 484 34,000  Climbing FlightAware
07:56AM 51.6960 -8.6691 263° West 474 545 32,500 -4,500 Descending FlightAware UK
07:56AM 51.6930 -8.7063 263° West 474 545 32,500  Level FlightAware UK
07:56AM 51.6885 -8.7620 263° West 474 545 32,500 2,520 Level FlightAware UK
07:56AM 51.6860 -8.7970 263° West 420 483 34,000  Climbing FlightAware
07:57AM 51.6792 -8.8734 263° West 474 545 32,500 -2,460 Descending FlightAware UK
07:57AM 51.6746 -8.9291 262° West 476 548 32,500 4,260 Level FlightAware UK
07:57AM 51.6750 -8.9230 262° West 420 483 34,000  Climbing FlightAware
07:57AM 51.6698 -8.9848 262° West 474 545 32,500  Descending FlightAware UK
07:58AM 51.6650 -9.0450 262° West 421 484 34,000 1,260 Climbing FlightAware
07:58AM 51.6530 -9.1870 262° West 423 487 34,000  Level FlightAware
07:59AM 51.6420 -9.3070 262° West 427 491 34,000  Level FlightAware
08:00AM 51.6300 -9.4520 262° West 429 494 34,000  Level FlightAware
08:00AM 51.6180 -9.5800 261° West 424 488 34,000  Level FlightAware
08:01AM 51.6080 -9.6950 262° West 423 487 34,000  Level FlightAware
08:02AM 51.5940 -9.8500 262° West 422 486 34,000  Level FlightAware
08:02AM 51.5830 -9.9640 261° West 423 487 34,000  Level FlightAware
08:03AM 51.5700 -10.1030 261° West 424 488 34,000  Level FlightAware
08:04AM 51.5510 -10.3080 262° West 425 489 34,000  Level FlightAware
08:05AM 51.5310 -10.5110 261° West 425 489 34,000  Level FlightAware
08:06AM 51.5190 -10.6370 261° West 427 491 34,000  Level FlightAware
08:07AM 51.5040 -10.7820 261° West 429 494 34,000  Level FlightAware
08:08AM 51.4890 -10.9310 261° West 429 494 34,000  Level FlightAware
08:08AM 51.4760 -11.0540 260° West 429 494 34,000  Level FlightAware
08:09AM 51.4640 -11.1600 260° West 429 494 34,000  Level FlightAware
08:10AM 51.4520 -11.2670 260° West 429 494 34,000  Level FlightAware
08:10AM 51.4400 -11.3740 260° West 429 494 34,000  Level FlightAware
08:11AM 51.4260 -11.5070 260° West 429 494 34,000  Level FlightAware
08:12AM 51.4140 -11.6130 260° West 429 494 34,000  Level FlightAware
08:13AM 51.4020 -11.7200 260° West 429 494 34,000  Level FlightAware
08:13AM 51.3900 -11.8260 260° West 429 494 34,000  Level FlightAware
08:14AM 51.3790 -11.9330 261° West 429 494 34,000  Level FlightAware
08:15AM 51.3670 -12.0390 260° West 429 494 34,000  Level FlightAware
08:15AM 51.3520 -12.1720 260° West 429 494 34,000  Level FlightAware
08:16AM 51.3410 -12.2790 261° West 429 494 34,000  Level FlightAware
08:17AM 51.3290 -12.3850 260° West 429 494 34,000  Level FlightAware
08:17AM 51.3170 -12.4910 260° West 429 494 34,000  Level FlightAware
08:20AM 51.2555 -12.8892 256° West  Level FlightAware Approximate
08:21AM 51.2262 -13.0755 256° West  Level FlightAware Approximate
08:22AM 51.1965 -13.2616 256° West  Level FlightAware Approximate
08:23AM 51.1666 -13.4474 256° West  Level FlightAware Approximate
08:24AM 51.1365 -13.6330 256° West  Level FlightAware Approximate
08:25AM 51.1060 -13.8184 255° West  Level FlightAware Approximate
08:26AM 51.0752 -14.0035 255° West  Level FlightAware Approximate
08:27AM 51.0441 -14.1883 255° West  Level FlightAware Approximate
08:28AM 51.0130 -14.3740 256° West  Level FlightAware Approximate
08:29AM 50.9840 -14.5595 256° West  Level FlightAware Approximate
08:30AM 50.9548 -14.7447 256° West  Level FlightAware Approximate
08:31AM 50.9253 -14.9297 256° West  Level FlightAware Approximate
08:32AM 50.8958 -15.1147 256° West  Level FlightAware Approximate
08:33AM 50.8662 -15.2994 256° West  Level FlightAware Approximate
08:34AM 50.8364 -15.4839 256° West  Level FlightAware Approximate
08:35AM 50.8062 -15.6682 256° West  Level FlightAware Approximate
08:36AM 50.7757 -15.8523 255° West  Level FlightAware Approximate
08:37AM 50.7450 -16.0361 255° West  Level FlightAware Approximate
08:38AM 50.7139 -16.2196 255° West  Level FlightAware Approximate
08:39AM 50.6826 -16.4029 255° West  Level FlightAware Approximate
08:40AM 50.6510 -16.5860 255° West  Level FlightAware Approximate
08:41AM 50.6191 -16.7688 255° West  Level FlightAware Approximate
08:42AM 50.5869 -16.9514 255° West  Level FlightAware Approximate
08:43AM 50.5545 -17.1337 254° West  Level FlightAware Approximate
08:44AM 50.5217 -17.3158 254° West  Level FlightAware Approximate
08:45AM 50.4887 -17.4976 254° West  Level FlightAware Approximate
08:46AM 50.4553 -17.6791 254° West  Level FlightAware Approximate
08:47AM 50.4217 -17.8604 254° West  Level FlightAware Approximate
08:48AM 50.3879 -18.0415 254° West  Level FlightAware Approximate
08:49AM 50.3537 -18.2223 254° West  Level FlightAware Approximate
08:50AM 50.3192 -18.4028 253° West  Level FlightAware Approximate
08:51AM 50.2845 -18.5830 253° West  Level FlightAware Approximate
08:52AM 50.2495 -18.7630 253° West  Level FlightAware Approximate
08:53AM 50.2142 -18.9428 253° West  Level FlightAware Approximate
08:54AM 50.1787 -19.1222 253° West  Level FlightAware Approximate
08:55AM 50.1429 -19.3014 253° West  Level FlightAware Approximate
08:55AM 50.0000 -20.0000 249° West 467 537 34,000  Level ETMS Enhanced Traffic Management System
08:56AM 50.1068 -19.4804 253° West  Level FlightAware Approximate
08:57AM 50.0704 -19.6590 252° West  Level FlightAware Approximate
08:58AM 50.0337 -19.8374 252° West  Level FlightAware Approximate
08:59AM 49.9963 -20.0152 249° West  Level FlightAware Approximate
09:00AM 49.9539 -20.1903 249° West  Level FlightAware Approximate
09:01AM 49.7212 -21.1276 249° West 467 537 34,000  Level FlightAware Transoceanic
09:02AM 49.6737 -21.3142 248° West 467 537 34,000  Level FlightAware Transoceanic
09:03AM 49.6259 -21.5005 248° West 467 537 34,000  Level FlightAware Transoceanic
09:04AM 49.5778 -21.6864 248° West 467 537 34,000  Level FlightAware Transoceanic
09:05AM 49.5294 -21.8720 248° West 467 537 34,000  Level FlightAware Transoceanic
09:06AM 49.4806 -22.0572 248° West 467 537 34,000  Level FlightAware Transoceanic
09:07AM 49.4316 -22.2420 248° West 467 537 34,000  Level FlightAware Transoceanic
09:08AM 49.3823 -22.4265 248° West 467 537 34,000  Level FlightAware Transoceanic
09:09AM 49.3327 -22.6106 247° West 467 537 34,000  Level FlightAware Transoceanic
09:10AM 49.2828 -22.7943 247° West 467 537 34,000  Level FlightAware Transoceanic
09:11AM 49.2327 -22.9776 247° West 467 537 34,000  Level FlightAware Transoceanic
09:12AM 49.1822 -23.1606 247° West 467 537 34,000  Level FlightAware Transoceanic
09:13AM 49.1315 -23.3432 247° West 467 537 34,000  Level FlightAware Transoceanic
09:14AM 49.0804 -23.5254 247° West 467 537 34,000  Level FlightAware Transoceanic
09:15AM 49.0291 -23.7072 247° West 467 537 34,000  Level FlightAware Transoceanic
09:16AM 48.9775 -23.8887 246° West 467 537 34,000  Level FlightAware Transoceanic
09:17AM 48.9256 -24.0698 246° West 467 537 34,000  Level FlightAware Transoceanic
09:18AM 48.8734 -24.2505 246° West 467 537 34,000  Level FlightAware Transoceanic
09:19AM 48.8209 -24.4308 246° West 467 537 34,000  Level FlightAware Transoceanic
09:20AM 48.7682 -24.6108 246° West 467 537 34,000  Level FlightAware Transoceanic
09:21AM 48.7152 -24.7903 246° West 467 537 34,000  Level FlightAware Transoceanic
09:22AM 48.6619 -24.9695 246° West 467 537 34,000  Level FlightAware Transoceanic
09:23AM 48.6083 -25.1484 246° West 467 537 34,000  Level FlightAware Transoceanic
09:24AM 48.5544 -25.3268 245° Southwest 467 537 34,000  Level FlightAware Transoceanic
09:25AM 48.5003 -25.5049 245° Southwest 467 537 34,000  Level FlightAware Transoceanic
09:26AM 48.4459 -25.6825 245° Southwest 467 537 34,000  Level FlightAware Transoceanic
09:27AM 48.3912 -25.8598 245° Southwest 467 537 34,000  Level FlightAware Transoceanic
09:28AM 48.3363 -26.0368 245° Southwest 467 537 34,000  Level FlightAware Transoceanic
09:29AM 48.2811 -26.2133 245° Southwest 467 537 34,000  Level FlightAware Transoceanic
09:30AM 48.2256 -26.3894 245° Southwest 467 537 34,000  Level FlightAware Transoceanic
09:31AM 48.1698 -26.5652 244° Southwest 467 537 34,000  Level FlightAware Transoceanic
09:32AM 48.1138 -26.7406 244° Southwest 467 537 34,000  Level FlightAware Transoceanic
09:33AM 48.0575 -26.9156 244° Southwest 467 537 34,000  Level FlightAware Transoceanic
09:34AM 48.0009 -27.0902 244° Southwest 467 537 34,000  Level FlightAware Transoceanic
09:35AM 47.9441 -27.2644 244° Southwest 467 537 34,000  Level FlightAware Transoceanic
09:36AM 47.8870 -27.4383 244° Southwest 467 537 34,000  Level FlightAware Transoceanic
09:37AM 47.8297 -27.6118 244° Southwest 467 537 34,000  Level FlightAware Transoceanic
09:38AM 47.7721 -27.7848 244° Southwest 467 537 34,000  Level FlightAware Transoceanic
09:39AM 47.7142 -27.9576 243° Southwest 467 537 34,000  Level FlightAware Transoceanic
09:40AM 47.6561 -28.1299 243° Southwest 467 537 34,000  Level FlightAware Transoceanic
09:41AM 47.5977 -28.3018 243° Southwest 467 537 34,000  Level FlightAware Transoceanic
09:42AM 47.5391 -28.4733 243° Southwest 467 537 34,000  Level FlightAware Transoceanic
09:43AM 47.4802 -28.6445 243° Southwest 467 537 34,000  Level FlightAware Transoceanic
09:44AM 47.4211 -28.8153 243° Southwest 467 537 34,000  Level FlightAware Transoceanic
09:45AM 47.3616 -28.9857 243° Southwest 467 537 34,000  Level FlightAware Transoceanic
09:46AM 47.3020 -29.1557 243° Southwest 467 537 34,000  Level FlightAware Transoceanic
09:47AM 47.2421 -29.3253 242° Southwest 467 537 34,000  Level FlightAware Transoceanic
09:48AM 47.1819 -29.4946 242° Southwest 467 537 34,000  Level FlightAware Transoceanic
09:49AM 47.1215 -29.6634 242° Southwest 467 537 34,000  Level FlightAware Transoceanic
09:50AM 47.0609 -29.8319 242° Southwest 467 537 34,000  Level FlightAware Transoceanic
09:51AM 47.0045 -29.9877 242° Southwest  Level FlightAware Approximate
09:52AM 46.9478 -30.1432 242° Southwest  Level FlightAware Approximate
09:53AM 46.9522 -30.1309 242° Southwest  Level FlightAware Approximate
09:54AM 46.8952 -30.2859 242° Southwest  Level FlightAware Approximate
09:55AM 46.8381 -30.4407 242° Southwest  Level FlightAware Approximate
09:56AM 46.7807 -30.5951 242° Southwest  Level FlightAware Approximate
09:57AM 46.7231 -30.7492 241° Southwest  Level FlightAware Approximate
09:58AM 46.6653 -30.9030 241° Southwest  Level FlightAware Approximate
09:59AM 46.6073 -31.0564 241° Southwest  Level FlightAware Approximate
10:00AM 46.5491 -31.2095 241° Southwest  Level FlightAware Approximate
10:01AM 46.4907 -31.3623 241° Southwest  Level FlightAware Approximate
10:02AM 46.4321 -31.5147 241° Southwest  Level FlightAware Approximate
10:03AM 46.3733 -31.6669 241° Southwest  Level FlightAware Approximate
10:04AM 46.3143 -31.8187 241° Southwest  Level FlightAware Approximate
10:05AM 46.2551 -31.9701 241° Southwest  Level FlightAware Approximate
10:06AM 46.1957 -32.1213 240° Southwest  Level FlightAware Approximate
10:07AM 46.1361 -32.2721 240° Southwest  Level FlightAware Approximate
10:08AM 46.0762 -32.4226 240° Southwest  Level FlightAware Approximate
10:09AM 46.0162 -32.5727 240° Southwest  Level FlightAware Approximate
10:10AM 45.9560 -32.7226 240° Southwest  Level FlightAware Approximate
10:11AM 45.8956 -32.8721 240° Southwest  Level FlightAware Approximate
10:12AM 45.8350 -33.0213 240° Southwest  Level FlightAware Approximate
10:13AM 45.7743 -33.1701 240° Southwest  Level FlightAware Approximate
10:14AM 45.7133 -33.3186 240° Southwest  Level FlightAware Approximate
10:15AM 45.6521 -33.4669 239° Southwest  Level FlightAware Approximate
10:16AM 45.5908 -33.6147 239° Southwest  Level FlightAware Approximate
10:17AM 45.5292 -33.7623 239° Southwest  Level FlightAware Approximate
10:18AM 45.4675 -33.9095 239° Southwest  Level FlightAware Approximate
10:19AM 45.4055 -34.0564 239° Southwest  Level FlightAware Approximate
10:20AM 45.3434 -34.2030 239° Southwest  Level FlightAware Approximate
10:21AM 45.2811 -34.3493 239° Southwest  Level FlightAware Approximate
10:22AM 45.2186 -34.4953 239° Southwest  Level FlightAware Approximate
10:23AM 45.1559 -34.6409 239° Southwest  Level FlightAware Approximate
10:24AM 45.0931 -34.7862 239° Southwest  Level FlightAware Approximate
10:25AM 45.0300 -34.9312 238° Southwest  Level FlightAware Approximate
10:26AM 44.9612 -35.0703 232° Southwest  Level FlightAware Approximate
10:27AM 44.8871 -35.2041 232° Southwest  Level FlightAware Approximate
10:28AM 44.8128 -35.3375 232° Southwest  Level FlightAware Approximate
10:29AM 44.7383 -35.4705 232° Southwest  Level FlightAware Approximate
10:30AM 44.6638 -35.6033 232° Southwest  Level FlightAware Approximate
10:31AM 44.5890 -35.7356 232° Southwest  Level FlightAware Approximate
10:32AM 44.5141 -35.8677 232° Southwest  Level FlightAware Approximate
10:33AM 44.4391 -35.9994 231° Southwest  Level FlightAware Approximate
10:34AM 44.3639 -36.1307 231° Southwest  Level FlightAware Approximate
10:35AM 44.2885 -36.2618 231° Southwest  Level FlightAware Approximate
10:36AM 44.2131 -36.3925 231° Southwest  Level FlightAware Approximate
10:37AM 44.1374 -36.5228 231° Southwest  Level FlightAware Approximate
10:38AM 44.0616 -36.6528 231° Southwest  Level FlightAware Approximate
10:39AM 43.9857 -36.7825 231° Southwest  Level FlightAware Approximate
10:40AM 43.9096 -36.9119 231° Southwest  Level FlightAware Approximate
10:41AM 43.8334 -37.0409 231° Southwest  Level FlightAware Approximate
10:42AM 43.7570 -37.1696 231° Southwest  Level FlightAware Approximate
10:43AM 43.6805 -37.2980 231° Southwest  Level FlightAware Approximate
10:44AM 43.6038 -37.4260 230° Southwest  Level FlightAware Approximate
10:45AM 43.5270 -37.5537 230° Southwest  Level FlightAware Approximate
10:46AM 43.4500 -37.6811 230° Southwest  Level FlightAware Approximate
10:47AM 43.3730 -37.8082 230° Southwest  Level FlightAware Approximate
10:48AM 43.2957 -37.9350 230° Southwest  Level FlightAware Approximate
10:49AM 43.2183 -38.0614 230° Southwest  Level FlightAware Approximate
10:50AM 43.1408 -38.1875 230° Southwest  Level FlightAware Approximate
10:51AM 43.0632 -38.3133 230° Southwest  Level FlightAware Approximate
10:52AM 42.9854 -38.4387 230° Southwest  Level FlightAware Approximate
10:53AM 42.9075 -38.5639 230° Southwest  Level FlightAware Approximate
10:54AM 42.8294 -38.6887 230° Southwest  Level FlightAware Approximate
10:55AM 42.7513 -38.8132 229° Southwest  Level FlightAware Approximate
10:56AM 42.6729 -38.9374 229° Southwest  Level FlightAware Approximate
10:57AM 42.5949 -39.0617 230° Southwest  Level FlightAware Approximate
10:58AM 42.5170 -39.1862 230° Southwest  Level FlightAware Approximate
10:59AM 42.4391 -39.3104 230° Southwest  Level FlightAware Approximate
11:00AM 42.3610 -39.4342 230° Southwest  Level FlightAware Approximate
11:01AM 42.2827 -39.5578 229° Southwest  Level FlightAware Approximate
11:01AM 42.0000 -40.0000 231° Southwest 481 554 34,000  Level New York Oceanic (ODAPS)
11:02AM 42.2044 -39.6810 229° Southwest  Level FlightAware Approximate
11:03AM 42.1259 -39.8039 229° Southwest  Level FlightAware Approximate
11:04AM 42.0473 -39.9265 229° Southwest  Level FlightAware Approximate
11:04AM 41.7333 -40.4667 231° Southwest 481 554 34,000  Level New York Oceanic (ODAPS)
11:05AM 41.9698 -40.0503 231° Southwest  Level FlightAware Approximate
11:06AM 41.8942 -40.1760 231° Southwest  Level FlightAware Approximate
11:06AM 41.5667 -40.7167 231° Southwest 481 554 34,000  Level New York Oceanic (ODAPS)
11:07AM 41.5001 -40.8311 231° Southwest 481 554 34,000  Level FlightAware Transoceanic
11:08AM 41.4162 -40.9684 231° Southwest 481 554 34,000  Level FlightAware Transoceanic
11:09AM 41.3322 -41.1053 231° Southwest 481 554 34,000  Level FlightAware Transoceanic
11:10AM 41.2316 -41.2869 230° Southwest 481 554 34,000  Level FlightAware Transoceanic
11:11AM 41.1474 -41.4223 230° Southwest 481 554 34,000  Level FlightAware Transoceanic
11:12AM 41.0631 -41.5348 230° Southwest 481 554 34,000  Level FlightAware Transoceanic
11:13AM 40.9786 -41.6700 230° Southwest 481 554 34,000  Level FlightAware Transoceanic
11:14AM 40.8940 -41.8048 230° Southwest 481 554 34,000  Level FlightAware Transoceanic
11:15AM 40.8092 -41.9392 230° Southwest 481 554 34,000 1,260 Level FlightAware Transoceanic
11:15AM 40.8000 -41.9500 230° Southwest 479 551 35,600  Climbing New York Oceanic (ODAPS)
11:16AM 40.7242 -42.0733 230° Southwest 481 554 34,000 660 Descending FlightAware Transoceanic
11:16AM 40.6833 -42.1333 230° Southwest 478 550 36,500  Climbing New York Oceanic (ODAPS)
11:17AM 40.6391 -42.2071 230° Southwest 481 554 34,000 600 Descending FlightAware Transoceanic
11:17AM 40.6000 -42.2833 230° Southwest 478 550 37,200  Climbing New York Oceanic (ODAPS)
11:18AM 40.5539 -42.3405 230° Southwest 481 554 34,000 300 Descending FlightAware Transoceanic
11:18AM 40.5000 -42.4333 230° Southwest 477 549 37,600  Climbing New York Oceanic (ODAPS)
11:19AM 40.4685 -42.4736 230° Southwest 481 554 34,000 -3,180 Descending FlightAware Transoceanic
11:20AM 40.3829 -42.6063 230° Southwest 481 554 34,000 3,300 Level FlightAware Transoceanic
11:20AM 40.3833 -42.6000 230° Southwest 478 550 38,000 1,560 Climbing New York Oceanic (ODAPS)
11:21AM 40.2888 -42.7483 230° Southwest 479 551 35,600 -840 Descending FlightAware Transoceanic
11:22AM 40.1739 -42.9243 230° Southwest 478 550 36,500 780 Climbing FlightAware Transoceanic
11:23AM 40.1680 -42.9507 229° Southwest 478 550 37,200 300 Climbing FlightAware Transoceanic
11:24AM 40.0811 -43.0832 229° Southwest 478 550 37,200 180 Level FlightAware Transoceanic
11:25AM 39.9815 -43.2293 229° Southwest 477 549 37,600 360 Climbing FlightAware Transoceanic
11:26AM 39.8668 -43.3901 229° Southwest 478 550 38,000 180 Climbing FlightAware Transoceanic
11:27AM 39.7802 -43.5206 229° Southwest 478 550 38,000  Level FlightAware Transoceanic
11:28AM 39.6934 -43.6508 229° Southwest 478 550 38,000  Level FlightAware Transoceanic
11:29AM 39.6065 -43.7807 229° Southwest 478 550 38,000  Level FlightAware Transoceanic
11:30AM 39.5195 -43.9102 229° Southwest 478 550 38,000  Level FlightAware Transoceanic
11:31AM 39.4323 -44.0394 229° Southwest 478 550 38,000  Level FlightAware Transoceanic
11:32AM 39.3449 -44.1683 229° Southwest 478 550 38,000  Level FlightAware Transoceanic
11:33AM 39.2575 -44.2969 229° Southwest 478 550 38,000  Level FlightAware Transoceanic
11:34AM 39.1698 -44.4252 229° Southwest 478 550 38,000  Level FlightAware Transoceanic
11:35AM 39.0821 -44.5531 228° Southwest 478 550 38,000  Level FlightAware Transoceanic
11:36AM 38.9942 -44.6807 228° Southwest 478 550 38,000  Level FlightAware Transoceanic
11:37AM 38.9062 -44.8080 228° Southwest 478 550 38,000  Level FlightAware Transoceanic
11:38AM 38.8180 -44.9350 228° Southwest 478 550 38,000  Level FlightAware Transoceanic
11:39AM 38.7297 -45.0616 228° Southwest 478 550 38,000  Level FlightAware Transoceanic
11:40AM 38.6412 -45.1880 228° Southwest 478 550 38,000  Level FlightAware Transoceanic
11:41AM 38.5527 -45.3140 228° Southwest 478 550 38,000  Level FlightAware Transoceanic
11:42AM 38.4639 -45.4398 228° Southwest 478 550 38,000  Level FlightAware Transoceanic
11:43AM 38.3751 -45.5652 228° Southwest 478 550 38,000  Level FlightAware Transoceanic
11:44AM 38.2861 -45.6903 228° Southwest 478 550 38,000  Level FlightAware Transoceanic
11:45AM 38.1970 -45.8151 228° Southwest 478 550 38,000  Level FlightAware Transoceanic
11:46AM 38.1077 -45.9396 228° Southwest 478 550 38,000  Level FlightAware Transoceanic
11:47AM 38.0184 -46.0638 228° Southwest 478 550 38,000  Level FlightAware Transoceanic
11:48AM 37.9288 -46.1877 227° Southwest 478 550 38,000  Level FlightAware Transoceanic
11:49AM 37.8392 -46.3113 227° Southwest 478 550 38,000  Level FlightAware Transoceanic
11:50AM 37.7495 -46.4346 227° Southwest 478 550 38,000  Level FlightAware Transoceanic
11:51AM 37.6595 -46.5576 227° Southwest 478 550 38,000  Level FlightAware Transoceanic
11:52AM 37.5695 -46.6803 227° Southwest 478 550 38,000  Level FlightAware Transoceanic
11:53AM 37.4794 -46.8027 227° Southwest 478 550 38,000  Level FlightAware Transoceanic
11:54AM 37.3891 -46.9248 227° Southwest 478 550 38,000  Level FlightAware Transoceanic
11:55AM 37.2987 -47.0466 227° Southwest 478 550 38,000  Level FlightAware Transoceanic
11:56AM 37.2082 -47.1681 227° Southwest 478 550 38,000  Level FlightAware Transoceanic
11:57AM 37.1175 -47.2893 227° Southwest 478 550 38,000  Level FlightAware Transoceanic
11:58AM 37.0268 -47.4103 227° Southwest 478 550 38,000  Level FlightAware Transoceanic
11:59AM 36.9359 -47.5309 227° Southwest 478 550 38,000  Level FlightAware Transoceanic
12:00PM 36.8448 -47.6513 227° Southwest 478 550 38,000  Level FlightAware Transoceanic
12:01PM 36.7537 -47.7714 226° Southwest 478 550 38,000  Level FlightAware Transoceanic
12:02PM 36.6624 -47.8912 226° Southwest 478 550 38,000  Level FlightAware Transoceanic
12:03PM 36.5711 -48.0107 226° Southwest 478 550 38,000  Level FlightAware Transoceanic
12:04PM 36.4796 -48.1299 226° Southwest 478 550 38,000  Level FlightAware Transoceanic
12:05PM 36.3880 -48.2488 226° Southwest 478 550 38,000  Level FlightAware Transoceanic
12:06PM 36.2962 -48.3675 226° Southwest 478 550 38,000  Level FlightAware Transoceanic
12:07PM 36.2044 -48.4859 226° Southwest 478 550 38,000  Level FlightAware Transoceanic
12:08PM 36.1124 -48.6040 226° Southwest 478 550 38,000  Level FlightAware Transoceanic
12:09PM 36.0203 -48.7218 226° Southwest 478 550 38,000  Level FlightAware Transoceanic
12:10PM 35.9281 -48.8393 226° Southwest 478 550 38,000  Level FlightAware Transoceanic
12:11PM 35.8358 -48.9566 226° Southwest 478 550 38,000  Level FlightAware Transoceanic
12:12PM 35.7434 -49.0736 226° Southwest 478 550 38,000  Level FlightAware Transoceanic
12:13PM 35.6509 -49.1904 226° Southwest 478 550 38,000  Level FlightAware Transoceanic
12:14PM 35.5582 -49.3068 226° Southwest 478 550 38,000  Level FlightAware Transoceanic
12:15PM 35.4655 -49.4230 226° Southwest 478 550 38,000  Level FlightAware Transoceanic
12:16PM 35.3726 -49.5390 225° Southwest 478 550 38,000  Level FlightAware Transoceanic
12:17PM 35.2796 -49.6546 225° Southwest 478 550 38,000  Level FlightAware Transoceanic
12:18PM 35.1865 -49.7700 225° Southwest 478 550 38,000  Level FlightAware Transoceanic
12:19PM 35.0933 -49.8851 225° Southwest 478 550 38,000  Level FlightAware Transoceanic
12:20PM 35.0000 -50.0000 222° Southwest 478 550 38,000  Level FlightAware Transoceanic
12:20PM 35.0000 -50.0000 222° Southwest 452 520 38,000  Level New York Oceanic (ODAPS)
12:21PM 34.9058 -50.1016 221° Southwest 478 550 38,000  Level FlightAware Transoceanic
12:22PM 34.8115 -50.2030 221° Southwest 478 550 38,000  Level FlightAware Transoceanic
12:23PM 34.7172 -50.3042 221° Southwest 478 550 38,000  Level FlightAware Transoceanic
12:24PM 34.6227 -50.4051 221° Southwest 478 550 38,000  Level FlightAware Transoceanic
12:25PM 34.5282 -50.5058 221° Southwest 478 550 38,000  Level FlightAware Transoceanic
12:26PM 34.3389 -50.7066 221° Southwest 452 520 38,000  Level FlightAware Transoceanic
12:27PM 34.2441 -50.8066 221° Southwest 452 520 38,000  Level FlightAware Transoceanic
12:28PM 34.1492 -50.9064 221° Southwest 452 520 38,000  Level FlightAware Transoceanic
12:29PM 34.0543 -51.0060 221° Southwest 452 520 38,000  Level FlightAware Transoceanic
12:30PM 33.9593 -51.1053 221° Southwest 452 520 38,000  Level FlightAware Transoceanic
12:31PM 33.8642 -51.2044 221° Southwest 452 520 38,000  Level FlightAware Transoceanic
12:32PM 33.7690 -51.3033 221° Southwest 452 520 38,000  Level FlightAware Transoceanic
12:33PM 33.6738 -51.4020 221° Southwest 452 520 38,000  Level FlightAware Transoceanic
12:34PM 33.5784 -51.5005 221° Southwest 452 520 38,000  Level FlightAware Transoceanic
12:35PM 33.4830 -51.5988 221° Southwest 452 520 38,000  Level FlightAware Transoceanic
12:36PM 33.3875 -51.6968 221° Southwest 452 520 38,000  Level FlightAware Transoceanic
12:37PM 33.2920 -51.7946 221° Southwest 452 520 38,000  Level FlightAware Transoceanic
12:38PM 33.1963 -51.8922 220° Southwest 452 520 38,000  Level FlightAware Transoceanic
12:39PM 33.1006 -51.9896 220° Southwest 452 520 38,000  Level FlightAware Transoceanic
12:40PM 33.0048 -52.0868 220° Southwest 452 520 38,000  Level FlightAware Transoceanic
12:41PM 32.9089 -52.1838 220° Southwest 452 520 38,000  Level FlightAware Transoceanic
12:42PM 32.8130 -52.2805 220° Southwest 452 520 38,000  Level FlightAware Transoceanic
12:43PM 32.7170 -52.3771 220° Southwest 452 520 38,000  Level FlightAware Transoceanic
12:44PM 32.6209 -52.4734 220° Southwest 452 520 38,000  Level FlightAware Transoceanic
12:45PM 32.5247 -52.5696 220° Southwest 452 520 38,000  Level FlightAware Transoceanic
12:46PM 32.4285 -52.6655 220° Southwest 452 520 38,000  Level FlightAware Transoceanic
12:47PM 32.3322 -52.7612 220° Southwest 452 520 38,000  Level FlightAware Transoceanic
12:48PM 32.2358 -52.8568 220° Southwest 452 520 38,000  Level FlightAware Transoceanic
12:49PM 32.1393 -52.9521 220° Southwest 452 520 38,000  Level FlightAware Transoceanic
12:50PM 32.0428 -53.0472 220° Southwest 452 520 38,000  Level FlightAware Transoceanic
12:51PM 31.9462 -53.1421 220° Southwest 452 520 38,000  Level FlightAware Transoceanic
12:52PM 31.8495 -53.2369 220° Southwest 452 520 38,000  Level FlightAware Transoceanic
12:53PM 31.7528 -53.3314 220° Southwest 452 520 38,000  Level FlightAware Transoceanic
12:54PM 31.6560 -53.4257 220° Southwest 452 520 38,000  Level FlightAware Transoceanic
12:55PM 31.5591 -53.5198 220° Southwest 452 520 38,000  Level FlightAware Transoceanic
12:56PM 31.4622 -53.6138 220° Southwest 452 520 38,000  Level FlightAware Transoceanic
12:57PM 31.3652 -53.7075 219° Southwest 452 520 38,000  Level FlightAware Transoceanic
12:58PM 31.2681 -53.8010 219° Southwest 452 520 38,000  Level FlightAware Transoceanic
12:59PM 31.1709 -53.8944 219° Southwest 452 520 38,000  Level FlightAware Transoceanic
01:00PM 31.0737 -53.9876 219° Southwest 452 520 38,000  Level FlightAware Transoceanic
01:01PM 30.9764 -54.0805 219° Southwest 452 520 38,000  Level FlightAware Transoceanic
01:02PM 30.8791 -54.1733 219° Southwest 452 520 38,000  Level FlightAware Transoceanic
01:03PM 30.7817 -54.2659 219° Southwest 452 520 38,000  Level FlightAware Transoceanic
01:04PM 30.6842 -54.3583 219° Southwest 452 520 38,000  Level FlightAware Transoceanic
01:05PM 30.5866 -54.4505 219° Southwest 452 520 38,000  Level FlightAware Transoceanic
01:06PM 30.4890 -54.5426 219° Southwest 452 520 38,000  Level FlightAware Transoceanic
01:07PM 30.3913 -54.6344 219° Southwest 452 520 38,000  Level FlightAware Transoceanic
01:08PM 30.2936 -54.7261 219° Southwest 452 520 38,000  Level FlightAware Transoceanic
01:09PM 30.1958 -54.8176 219° Southwest 452 520 38,000  Level FlightAware Transoceanic
01:10PM 30.0979 -54.9089 219° Southwest 452 520 38,000  Level FlightAware Transoceanic
01:11PM 30.0000 -55.0000 214° Southwest 452 520 38,000  Level FlightAware Transoceanic
01:12PM 29.8984 -55.0783 214° Southwest 452 520 38,000  Level FlightAware Transoceanic
01:13PM 29.7968 -55.1563 214° Southwest 452 520 38,000  Level FlightAware Transoceanic
01:14PM 29.6951 -55.2343 214° Southwest 452 520 38,000  Level FlightAware Transoceanic
01:15PM 29.5934 -55.3120 214° Southwest 452 520 38,000  Level FlightAware Transoceanic
01:15PM 30.0000 -55.0000 214° Southwest 432 497 38,000  Level New York Oceanic (ODAPS)
01:16PM 29.4916 -55.3897 214° Southwest 452 520 38,000  Level FlightAware Transoceanic
01:17PM 29.3898 -55.4671 214° Southwest 452 520 38,000  Level FlightAware Transoceanic
01:18PM 29.2879 -55.5444 213° Southwest 452 520 38,000  Level FlightAware Transoceanic
01:19PM 29.1860 -55.6216 213° Southwest 452 520 38,000  Level FlightAware Transoceanic
01:20PM 29.0841 -55.6986 213° Southwest 452 520 38,000  Level FlightAware Transoceanic
01:21PM 28.9821 -55.7754 213° Southwest 452 520 38,000  Level FlightAware Transoceanic
01:22PM 28.7957 -55.9154 213° Southwest 432 497 38,000  Level FlightAware Transoceanic
01:23PM 28.6951 -55.9907 213° Southwest 432 497 38,000  Level FlightAware Transoceanic
01:24PM 28.5944 -56.0659 213° Southwest 432 497 38,000  Level FlightAware Transoceanic
01:25PM 28.4937 -56.1409 213° Southwest 432 497 38,000  Level FlightAware Transoceanic
01:26PM 28.3929 -56.2158 213° Southwest 432 497 38,000  Level FlightAware Transoceanic
01:27PM 28.2921 -56.2905 213° Southwest 432 497 38,000  Level FlightAware Transoceanic
01:28PM 28.1913 -56.3651 213° Southwest 432 497 38,000  Level FlightAware Transoceanic
01:29PM 28.0904 -56.4396 213° Southwest 432 497 38,000  Level FlightAware Transoceanic
01:30PM 27.9895 -56.5139 213° Southwest 432 497 38,000  Level FlightAware Transoceanic
01:31PM 27.8885 -56.5881 213° Southwest 432 497 38,000  Level FlightAware Transoceanic
01:32PM 27.7875 -56.6621 213° Southwest 432 497 38,000  Level FlightAware Transoceanic
01:33PM 27.6865 -56.7360 213° Southwest 432 497 38,000  Level FlightAware Transoceanic
01:34PM 27.5854 -56.8098 213° Southwest 432 497 38,000  Level FlightAware Transoceanic
01:35PM 27.4843 -56.8834 213° Southwest 432 497 38,000  Level FlightAware Transoceanic
01:36PM 27.3831 -56.9569 213° Southwest 432 497 38,000  Level FlightAware Transoceanic
01:37PM 27.2819 -57.0303 213° Southwest 432 497 38,000  Level FlightAware Transoceanic
01:38PM 27.1807 -57.1035 213° Southwest 432 497 38,000  Level FlightAware Transoceanic
01:39PM 27.0794 -57.1766 213° Southwest 432 497 38,000  Level FlightAware Transoceanic
01:40PM 26.9781 -57.2496 213° Southwest 432 497 38,000  Level FlightAware Transoceanic
01:41PM 26.8768 -57.3224 213° Southwest 432 497 38,000  Level FlightAware Transoceanic
01:42PM 26.7754 -57.3951 213° Southwest 432 497 38,000  Level FlightAware Transoceanic
01:43PM 26.6740 -57.4677 213° Southwest 432 497 38,000  Level FlightAware Transoceanic
01:44PM 26.5725 -57.5401 213° Southwest 432 497 38,000  Level FlightAware Transoceanic
01:45PM 26.4710 -57.6124 213° Southwest 432 497 38,000  Level FlightAware Transoceanic
01:46PM 26.3695 -57.6846 212° Southwest 432 497 38,000  Level FlightAware Transoceanic
01:47PM 26.2679 -57.7567 212° Southwest 432 497 38,000  Level FlightAware Transoceanic
01:48PM 26.1663 -57.8286 212° Southwest 432 497 38,000  Level FlightAware Transoceanic
01:49PM 26.0647 -57.9004 212° Southwest 432 497 38,000  Level FlightAware Transoceanic
01:50PM 25.9630 -57.9721 212° Southwest 432 497 38,000  Level FlightAware Transoceanic
01:51PM 25.8613 -58.0437 212° Southwest 432 497 38,000  Level FlightAware Transoceanic
01:52PM 25.7596 -58.1151 212° Southwest 432 497 38,000  Level FlightAware Transoceanic
01:53PM 25.6578 -58.1864 212° Southwest 432 497 38,000  Level FlightAware Transoceanic
01:54PM 25.5560 -58.2576 212° Southwest 432 497 38,000  Level FlightAware Transoceanic
01:55PM 25.4541 -58.3287 212° Southwest 432 497 38,000  Level FlightAware Transoceanic
01:56PM 25.3522 -58.3996 212° Southwest 432 497 38,000  Level FlightAware Transoceanic
01:57PM 25.2503 -58.4705 212° Southwest 432 497 38,000  Level FlightAware Transoceanic
01:58PM 25.1484 -58.5412 212° Southwest 432 497 38,000  Level FlightAware Transoceanic
01:59PM 25.0464 -58.6118 212° Southwest 432 497 38,000  Level FlightAware Transoceanic
02:00PM 24.9444 -58.6823 212° Southwest 432 497 38,000  Level FlightAware Transoceanic
02:01PM 24.8423 -58.7526 212° Southwest 432 497 38,000  Level FlightAware Transoceanic
02:02PM 24.7402 -58.8229 212° Southwest 432 497 38,000  Level FlightAware Transoceanic
02:03PM 24.6381 -58.8930 212° Southwest 432 497 38,000  Level FlightAware Transoceanic
02:04PM 24.5360 -58.9630 212° Southwest 432 497 38,000  Level FlightAware Transoceanic
02:05PM 24.4338 -59.0329 212° Southwest 432 497 38,000  Level FlightAware Transoceanic
02:06PM 24.3316 -59.1027 212° Southwest 432 497 38,000  Level FlightAware Transoceanic
02:07PM 24.2293 -59.1724 212° Southwest 432 497 38,000  Level FlightAware Transoceanic
02:08PM 24.1271 -59.2420 212° Southwest 432 497 38,000  Level FlightAware Transoceanic
02:09PM 24.0248 -59.3114 212° Southwest 432 497 38,000  Level FlightAware Transoceanic
02:10PM 23.9224 -59.3808 212° Southwest 432 497 38,000  Level FlightAware Transoceanic
02:11PM 23.8200 -59.4500 212° Southwest 432 497 38,000  Level FlightAware Transoceanic
02:12PM 23.7176 -59.5191 212° Southwest 432 497 38,000  Level FlightAware Transoceanic
02:13PM 23.6152 -59.5881 212° Southwest 432 497 38,000  Level FlightAware Transoceanic
02:14PM 23.5128 -59.6571 212° Southwest 432 497 38,000  Level FlightAware Transoceanic
02:15PM 23.4103 -59.7258 212° Southwest 432 497 38,000  Level FlightAware Transoceanic
02:16PM 23.3077 -59.7946 212° Southwest 432 497 38,000  Level FlightAware Transoceanic
02:17PM 23.2052 -59.8631 212° Southwest 432 497 38,000  Level FlightAware Transoceanic
02:18PM 23.1026 -59.9316 212° Southwest 432 497 38,000  Level FlightAware Transoceanic
02:19PM 23.0000 -60.0000 223° Southwest 432 497 38,000  Level FlightAware Transoceanic
02:20PM 22.9125 -60.0890 223° Southwest 432 497 38,000  Level FlightAware Transoceanic
02:20PM 23.0000 -60.0000 223° Southwest 430 495 38,000  Level New York Oceanic (ODAPS)
02:21PM 22.8250 -60.1778 223° Southwest 432 497 38,000  Level FlightAware Transoceanic
02:22PM 22.7375 -60.2666 223° Southwest 432 497 38,000  Level FlightAware Transoceanic
02:23PM 22.6499 -60.3553 223° Southwest 432 497 38,000  Level FlightAware Transoceanic
02:24PM 22.5622 -60.4438 223° Southwest 432 497 38,000  Level FlightAware Transoceanic
02:25PM 22.4745 -60.5322 223° Southwest 432 497 38,000  Level FlightAware Transoceanic
02:26PM 22.3868 -60.6205 223° Southwest 432 497 38,000  Level FlightAware Transoceanic
02:27PM 22.3868 -60.6205 223° Southwest 430 495 38,000  Level FlightAware Transoceanic
02:28PM 22.2990 -60.7087 223° Southwest 430 495 38,000  Level FlightAware Transoceanic
02:29PM 22.2111 -60.7968 223° Southwest 430 495 38,000  Level FlightAware Transoceanic
02:30PM 22.1232 -60.8847 223° Southwest 430 495 38,000  Level FlightAware Transoceanic
02:31PM 22.0353 -60.9726 223° Southwest 430 495 38,000  Level FlightAware Transoceanic
02:32PM 21.9473 -61.0603 223° Southwest 430 495 38,000  Level FlightAware Transoceanic
02:33PM 21.8593 -61.1480 223° Southwest 430 495 38,000  Level FlightAware Transoceanic
02:34PM 21.7712 -61.2355 223° Southwest 430 495 38,000  Level FlightAware Transoceanic
02:35PM 21.6831 -61.3230 223° Southwest 430 495 38,000  Level FlightAware Transoceanic
02:36PM 21.5949 -61.4103 223° Southwest 430 495 38,000  Level FlightAware Transoceanic
02:37PM 21.5067 -61.4975 223° Southwest 430 495 38,000  Level FlightAware Transoceanic
02:38PM 21.4184 -61.5846 223° Southwest 430 495 38,000  Level FlightAware Transoceanic
02:39PM 21.3301 -61.6716 223° Southwest 430 495 38,000  Level FlightAware Transoceanic
02:40PM 21.2417 -61.7585 222° Southwest 430 495 38,000  Level FlightAware Transoceanic
02:41PM 21.1533 -61.8453 222° Southwest 430 495 38,000  Level FlightAware Transoceanic
02:42PM 21.0649 -61.9320 222° Southwest 430 495 38,000  Level FlightAware Transoceanic
02:43PM 20.9764 -62.0186 222° Southwest 430 495 38,000  Level FlightAware Transoceanic
02:44PM 20.8879 -62.1051 222° Southwest 430 495 38,000  Level FlightAware Transoceanic
02:45PM 20.7993 -62.1914 222° Southwest 430 495 38,000  Level FlightAware Transoceanic
02:46PM 20.7107 -62.2777 222° Southwest 430 495 38,000  Level FlightAware Transoceanic
02:47PM 20.6220 -62.3639 222° Southwest 430 495 38,000  Level FlightAware Transoceanic
02:48PM 20.5333 -62.4500 226° Southwest 430 495 38,000  Level FlightAware Transoceanic
02:49PM 20.4476 -62.5461 226° Southwest 430 495 38,000  Level FlightAware Transoceanic
02:50PM 20.3617 -62.6421 226° Southwest 430 495 38,000  Level FlightAware Transoceanic
02:51PM 20.2759 -62.7380 226° Southwest 430 495 38,000  Level FlightAware Transoceanic
02:51PM 20.2910 -62.7340 226° Southwest 442 509 38,000  Level FlightAware
02:51PM 20.2330 -62.7980 226° Southwest 442 509 38,000  Level FlightAware
02:52PM 20.1850 -62.8520 227° Southwest 442 509 38,000  Level FlightAware
02:53PM 20.1360 -62.9050 225° Southwest 442 509 38,000  Level FlightAware
02:53PM 20.0880 -62.9580 226° Southwest 442 509 38,000  Level FlightAware
02:54PM 20.0400 -63.0110 226° Southwest 442 509 38,000  Level FlightAware
02:55PM 19.9790 -63.0780 226° Southwest 442 509 38,000  Level FlightAware
02:56PM 19.8700 -63.2010 227° Southwest 445 512 38,000  Level FlightAware
02:56PM 19.8120 -63.2650 226° Southwest 445 512 38,000  Level FlightAware
02:57PM 19.7570 -63.3250 226° Southwest 447 514 38,000  Level FlightAware
02:58PM 19.7080 -63.3790 226° Southwest 447 514 38,000  Level FlightAware
02:58PM 19.6470 -63.4460 226° Southwest 447 514 38,000  Level FlightAware
02:59PM 19.5980 -63.5000 226° Southwest 447 514 38,000  Level FlightAware
03:00PM 19.5490 -63.5540 226° Southwest 447 514 38,000  Level FlightAware
03:00PM 19.5010 -63.6070 226° Southwest 447 514 38,000  Level FlightAware
03:01PM 19.4520 -63.6610 226° Southwest 447 514 38,000  Level FlightAware
03:02PM 19.3910 -63.7280 226° Southwest 447 514 38,000  Level FlightAware
03:03PM 19.3420 -63.7820 226° Southwest 447 514 38,000  Level FlightAware
03:03PM 19.2930 -63.8350 226° Southwest 447 514 38,000  Level FlightAware
03:04PM 19.2440 -63.8890 226° Southwest 447 514 38,000  Level FlightAware
03:05PM 19.1950 -63.9420 226° Southwest 447 514 38,000  Level FlightAware
03:05PM 19.1340 -64.0090 226° Southwest 447 514 38,000  Level FlightAware
03:06PM 19.0850 -64.0630 226° Southwest 447 514 38,000  Level FlightAware
03:07PM 18.8833 -64.2667 226° Southwest 440 506 38,000  Level San Juan Center
03:13PM 18.4050 -64.7960 226° Southwest 441 507 38,000  Level FlightAware
03:13PM 18.3500 -64.8560 226° Southwest 443 510 38,000  Level FlightAware
03:14PM 18.2930 -64.9160 225° Southwest 444 511 38,000  Level FlightAware
03:15PM 18.2290 -64.9850 226° Southwest 444 511 38,000  Level FlightAware
03:15PM 18.1830 -65.0340 225° Southwest 443 510 38,000  Level FlightAware
03:16PM 18.1340 -65.0860 225° Southwest 443 510 38,000  Level FlightAware
03:17PM 18.0480 -65.1780 225° Southwest 444 511 38,000  Level FlightAware
03:17PM 17.9900 -65.2410 226° Southwest 446 513 38,000  Level FlightAware
03:18PM 17.9250 -65.3100 225° Southwest 451 519 38,000  Level FlightAware
03:19PM 17.8670 -65.3710 225° Southwest 452 520 38,000  Level FlightAware
03:20PM 17.8080 -65.4340 225° Southwest 453 521 38,000  Level FlightAware
03:20PM 17.7410 -65.5060 226° Southwest 455 524 38,000  Level FlightAware
03:21PM 17.6810 -65.5690 225° Southwest 454 522 38,000  Level FlightAware
03:22PM 17.6150 -65.6390 225° Southwest 453 521 38,000  Level FlightAware
03:22PM 17.5570 -65.7000 225° Southwest 453 521 38,000  Level FlightAware
03:23PM 17.4970 -65.7650 226° Southwest 456 525 38,000  Level FlightAware
03:24PM 17.4290 -65.8360 225° Southwest 458 527 38,000  Level FlightAware
03:24PM 17.3720 -65.8970 226° Southwest 460 529 38,000  Level FlightAware
03:25PM 17.3150 -65.9560 225° Southwest 462 532 38,000  Level FlightAware
03:26PM 17.2470 -66.0280 225° Southwest 463 533 38,000  Level FlightAware
03:26PM 17.1960 -66.0810 225° Southwest 463 533 38,000  Level FlightAware
03:27PM 17.1450 -66.1350 225° Southwest 463 533 38,000  Level FlightAware
03:28PM 17.0800 -66.2030 225° Southwest 463 533 38,000  Level FlightAware
03:29PM 17.0290 -66.2560 225° Southwest 463 533 38,000  Level FlightAware
03:29PM 16.9770 -66.3100 225° Southwest 463 533 38,000  Level FlightAware
03:30PM 16.9260 -66.3640 225° Southwest 463 533 38,000  Level FlightAware
03:31PM 16.8610 -66.4310 225° Southwest 463 533 38,000  Level FlightAware
03:31PM 16.8100 -66.4850 225° Southwest 463 533 38,000  Level FlightAware
03:32PM 16.7580 -66.5390 225° Southwest 463 533 38,000  Level FlightAware
03:33PM 16.7070 -66.5930 225° Southwest 463 533 38,000  Level FlightAware
03:34PM 16.5520 -66.7560 225° Southwest 456 525 38,000  Level FlightAware
03:34PM 16.4920 -66.8180 225° Southwest 456 525 38,000  Level FlightAware
03:35PM 16.4240 -66.8900 225° Southwest 456 525 38,000  Level FlightAware
03:36PM 16.3630 -66.9530 225° Southwest 458 527 38,000  Level FlightAware
03:36PM 16.2980 -67.0200 225° Southwest 460 529 38,000  Level FlightAware
03:37PM 16.2370 -67.0840 225° Southwest 458 527 38,000  Level FlightAware
03:38PM 16.1590 -67.1650 225° Southwest 458 527 38,000  Level FlightAware
03:38PM 16.1200 -67.2040 224° Southwest 458 527 38,000  Level FlightAware
03:39PM 16.0690 -67.2570 225° Southwest 458 527 38,000  Level FlightAware
03:40PM 16.0190 -67.3100 226° Southwest 458 527 38,000  Level FlightAware
03:40PM 15.9680 -67.3630 225° Southwest 458 527 38,000  Level FlightAware
03:41PM 15.9170 -67.4160 225° Southwest 458 527 38,000  Level FlightAware
03:42PM 15.8530 -67.4830 225° Southwest 458 527 38,000  Level FlightAware
03:43PM 15.8020 -67.5360 225° Southwest 458 527 38,000  Level FlightAware
03:43PM 15.7510 -67.5880 224° Southwest 458 527 38,000  Level FlightAware
03:44PM 15.7000 -67.6410 225° Southwest 458 527 38,000  Level FlightAware
03:45PM 15.6490 -67.6940 225° Southwest 458 527 38,000  Level FlightAware
03:45PM 15.5860 -67.7600 225° Southwest 458 527 38,000  Level FlightAware
03:46PM 15.5350 -67.8130 225° Southwest 458 527 38,000  Level FlightAware
03:47PM 15.4840 -67.8660 225° Southwest 458 527 38,000  Level FlightAware
03:47PM 15.4330 -67.9190 225° Southwest 458 527 38,000  Level FlightAware
03:50PM 15.2262 -68.0691 215° Southwest  Level Estimated
03:51PM 15.1253 -68.1423 215° Southwest  Level Estimated
03:52PM 15.0243 -68.2153 215° Southwest  Level Estimated
03:53PM 14.9234 -68.2883 215° Southwest  Level Estimated
03:54PM 14.8224 -68.3612 215° Southwest  Level Estimated
03:55PM 14.7214 -68.4341 215° Southwest  Level Estimated
03:56PM 14.6203 -68.5069 215° Southwest  Level Estimated
03:57PM 14.5193 -68.5796 215° Southwest  Level Estimated
03:58PM 14.4182 -68.6522 215° Southwest  Level Estimated
03:59PM 14.3171 -68.7248 215° Southwest  Level Estimated
04:00PM 14.2160 -68.7973 215° Southwest  Level Estimated
04:01PM 14.1148 -68.8698 215° Southwest  Level Estimated
04:02PM 14.0137 -68.9422 215° Southwest  Level Estimated
04:03PM 13.9125 -69.0145 215° Southwest  Level Estimated
04:04PM 13.8113 -69.0868 215° Southwest  Level Estimated
04:05PM 13.7100 -69.1590 215° Southwest  Level Estimated
04:06PM 13.6088 -69.2311 215° Southwest  Level Estimated
04:07PM 13.5075 -69.3032 215° Southwest  Level Estimated
04:08PM 13.4062 -69.3752 215° Southwest  Level Estimated
04:09PM 13.3049 -69.4471 215° Southwest  Level Estimated
04:10PM 13.2036 -69.5190 215° Southwest  Level Estimated
04:11PM 13.1022 -69.5909 215° Southwest  Level Estimated
04:12PM 13.0009 -69.6626 215° Southwest  Level Estimated
04:13PM 12.8995 -69.7343 215° Southwest  Level Estimated
04:14PM 12.7981 -69.8060 215° Southwest  Level Estimated
04:15PM 12.6966 -69.8776 215° Southwest  Level Estimated
04:16PM 12.5952 -69.9491 215° Southwest  Level Estimated
04:17PM 12.5014 -70.0152 215° Southwest  Level Estimated
04:18PM 12.5014 -70.0152 224° Southwest  Level Estimated
04:19PM 12.5014 -70.0152 224° Southwest  Level Estimated
04:20PM 12.5014 -70.0152 224° Southwest  Level Estimated
04:21PM 12.5014 -70.0152 224° Southwest  Level Estimated
04:22PM 12.5014 -70.0152 224° Southwest  Level Estimated
04:23PM 12.5014 -70.0152 224° Southwest  Level Estimated
04:24PM 12.5014 -70.0152 224° Southwest  Level Estimated
04:25PM 12.5014 -70.0152 224° Southwest  Level Estimated
04:26PM 12.5014 -70.0152 224° Southwest  Level Estimated
04:27PM 12.5014 -70.0152 224° Southwest  Level Estimated
04:28PM 12.5014 -70.0152 224° Southwest  Level Estimated
04:29PM 12.5014 -70.0152 224° Southwest  Level Estimated